»·PEaware :: UAL584 KLAS-KLAX

UAL584 :: KLAS-KLAX

FLIGHT INFORMATION

Flight Status: Arrived
Operator:
United Airlines
More flights by this operator :: More flights under this callsign
Pilot: Mike E. (18363)
Aircraft: BOEING 737-800
(B738)
More flights by this aircraft type
Origin: KLAS McCarran Intl
United States
Destination: KLAX Los Angeles Intl
United States
More flights between these airports :: More routes between these airports
Route: BOACH8 RIKII SHTNR ANJLL4
File this flight plan on PilotEdge
Remarks:
Altitude:
(Current/Filed)
26,000ft
Speed:
(Current/Filed)
465kts
Departed: 25-Nov-18 08:08 PM
Arrived: 25-Nov-18 08:50 PM
Distance/Time
Traveled:
205nm/0:42
Distance/Time
To Go:
Arrived

Flight Plot

Page will automatically refresh every two minutes.

Flight plan parsing failed; only flown route is shown


Map Options




Map Legend


Flown Route
Filed Route
Departure Airport
Arrival Airport
Navaid (VOR, NDB)
Fix

Horizontal Profiles

Position Reports

Time Latitude Longitude Heading Altitude Ground
Speed
25-Nov-18 19:42 36.083304 -115.139729 147 2118ft 0kts
25-Nov-18 19:43 36.083304 -115.139729 147 2118ft 0kts
25-Nov-18 19:44 36.083304 -115.139729 147 2118ft 0kts
25-Nov-18 19:45 36.083304 -115.139729 147 2118ft 0kts
25-Nov-18 19:46 36.083304 -115.139729 147 2118ft 0kts
25-Nov-18 19:47 36.083304 -115.139729 147 2118ft 0kts
25-Nov-18 19:48 36.083304 -115.139729 147 2118ft 0kts
25-Nov-18 19:49 36.083304 -115.139729 147 2118ft 0kts
25-Nov-18 19:50 36.083304 -115.139729 147 2118ft 0kts
25-Nov-18 19:51 36.083304 -115.139729 147 2118ft 0kts
25-Nov-18 19:52 36.083304 -115.139729 147 2118ft 0kts
25-Nov-18 19:53 36.083304 -115.139729 147 2118ft 0kts
25-Nov-18 19:54 36.083304 -115.139729 147 2118ft 0kts
25-Nov-18 19:55 36.083304 -115.139729 147 2118ft 0kts
25-Nov-18 19:56 36.083426 -115.139824 148 2118ft 2kts
25-Nov-18 19:57 36.083910 -115.140201 147 2118ft 2kts
25-Nov-18 19:58 36.084464 -115.140297 213 2118ft 2kts
25-Nov-18 19:59 36.084655 -115.139801 270 2118ft 0kts
25-Nov-18 20:00 36.084655 -115.139802 270 2118ft 0kts
25-Nov-18 20:01 36.084655 -115.139802 270 2118ft 0kts
25-Nov-18 20:02 36.084655 -115.139802 270 2118ft 0kts
25-Nov-18 20:03 36.083919 -115.141190 224 2118ft 15kts
25-Nov-18 20:04 36.080050 -115.141592 176 2118ft 13kts
25-Nov-18 20:05 36.078267 -115.137228 89 2118ft 15kts
25-Nov-18 20:06 36.078270 -115.132070 89 2118ft 14kts
25-Nov-18 20:07 36.078278 -115.126906 89 2118ft 15kts
25-Nov-18 20:08 36.077867 -115.122082 128 2118ft 13kts
25-Nov-18 20:09 36.077611 -115.121687 130 2118ft 0kts
25-Nov-18 20:10 36.076460 -115.121836 266 2118ft 4kts
25-Nov-18 20:11 36.076029 -115.153801 268 2721ft 165kts
25-Nov-18 20:12 36.075814 -115.219860 267 4562ft 223kts
25-Nov-18 20:13 36.033971 -115.285387 202 6888ft 281kts
25-Nov-18 20:14 35.956958 -115.307675 187 7448ft 289kts
25-Nov-18 20:15 35.890451 -115.310877 185 10149ft 296kts
25-Nov-18 20:16 35.784573 -115.307241 174 12709ft 342kts
25-Nov-18 20:17 35.704710 -115.297830 174 14913ft 355kts
25-Nov-18 20:18 35.604794 -115.297355 182 17361ft 369kts
25-Nov-18 20:19 35.484941 -115.317804 207 19267ft 383kts
25-Nov-18 20:20 35.409235 -115.371406 212 19265ft 376kts
25-Nov-18 20:21 35.318463 -115.437436 212 21054ft 387kts
25-Nov-18 20:22 35.228989 -115.502330 212 23713ft 375kts
25-Nov-18 20:23 35.138543 -115.568016 215 25416ft 386kts
25-Nov-18 20:24 35.060752 -115.659122 228 26254ft 403kts
25-Nov-18 20:25 34.980781 -115.761616 228 26258ft 429kts
25-Nov-18 20:26 34.899974 -115.864441 228 26255ft 416kts
25-Nov-18 20:27 34.820562 -115.965231 228 26256ft 414kts
25-Nov-18 20:28 34.740954 -116.066239 229 26255ft 413kts
25-Nov-18 20:29 34.662040 -116.166745 229 26255ft 413kts
25-Nov-18 20:30 34.582684 -116.267489 229 26251ft 413kts
25-Nov-18 20:31 34.503321 -116.367936 229 26254ft 414kts
25-Nov-18 20:32 34.424668 -116.468622 234 26241ft 412kts
25-Nov-18 20:33 34.371161 -116.587528 245 26211ft 389kts
25-Nov-18 20:34 34.323207 -116.704463 245 26182ft 391kts
25-Nov-18 20:35 34.276180 -116.821601 246 24913ft 383kts
25-Nov-18 20:36 34.230251 -116.935386 246 22597ft 371kts
25-Nov-18 20:37 34.192602 -117.048594 256 20420ft 367kts
25-Nov-18 20:38 34.162318 -117.162991 254 18292ft 363kts
25-Nov-18 20:39 34.130897 -117.277325 254 16034ft 357kts
25-Nov-18 20:40 34.100363 -117.388412 255 14170ft 340kts
25-Nov-18 20:41 34.072934 -117.496222 253 12089ft 334kts
25-Nov-18 20:42 34.045047 -117.598993 253 12011ft 319kts
25-Nov-18 20:43 34.017495 -117.700517 253 12012ft 319kts
25-Nov-18 20:44 33.994023 -117.803548 264 11618ft 319kts
25-Nov-18 20:45 33.985202 -117.903065 264 9714ft 300kts
25-Nov-18 20:46 33.976107 -117.996267 264 7801ft 264kts
25-Nov-18 20:47 33.967629 -118.082729 264 4974ft 244kts
25-Nov-18 20:48 33.960379 -118.157681 263 3704ft 220kts
25-Nov-18 20:49 33.953188 -118.228876 263 2626ft 198kts
25-Nov-18 20:50 33.946606 -118.293239 263 1604ft 180kts
25-Nov-18 20:51 33.941451 -118.343398 263 777ft 140kts
25-Nov-18 20:52 33.936630 -118.390048 260 110ft 114kts
25-Nov-18 20:53 33.936644 -118.400317 268 110ft 1kts
25-Nov-18 20:54 33.936624 -118.400946 268 110ft 0kts
25-Nov-18 20:55 33.936528 -118.401881 262 110ft 11kts
25-Nov-18 20:56 33.938417 -118.404643 340 110ft 12kts
25-Nov-18 20:57 33.939500 -118.401011 83 110ft 14kts
25-Nov-18 20:58 33.940983 -118.398329 353 110ft 11kts
25-Nov-18 20:59 33.942247 -118.397896 83 110ft 0kts
25-Nov-18 21:00 33.942247 -118.397896 83 110ft 0kts
25-Nov-18 21:01 33.942247 -118.397896 83 110ft 0kts

Navigation Log

Ident Type
Flight plan parsing failed, navigation log unavailable